Sao Francisco do Gloria, Brazil
Current Conditions -  °F | °C
As of 8:00 AM on Tuesday 21 Oct 2014 (Local Time) from SBCP Reporting Station
Broken Clouds Broken Clouds  
Wind Chill: 75°   Ceiling: 9000
Heat Index: 75°   Visibility: 6mi
Dew Point: 70°   Wind: 7mph
Humidity: 83%   Direction: 240°WSW
Pressure: 30.03"   Gusts: NA
Location:  20.79°S, 42.27°W
Report Text: SBCP 211000Z 24006KT 9999 FEW020 BKN090 24/21 Q1017
Loading
Personal Weather Stations






























Interactive Weather Map
Tropical Storm Tracking
New forecast layout! Learn more

10-Day Weather Forecast

Advertisements
Track Severe Weather on mobile